sensor_id;sensor_type;location;lat;lon;timestamp;P1;durP1;ratioP1;P2;durP2;ratioP2
66567;SDS011;53422;49.296;6.900;2022-09-20T00:00:42;6.07;;;1.92;;
66567;SDS011;53422;49.296;6.900;2022-09-20T00:03:09;7.72;;;2.30;;
66567;SDS011;53422;49.296;6.900;2022-09-20T00:05:36;6.28;;;2.00;;
66567;SDS011;53422;49.296;6.900;2022-09-20T00:08:03;8.27;;;1.98;;
66567;SDS011;53422;49.296;6.900;2022-09-20T00:10:32;4.47;;;2.03;;
66567;SDS011;53422;49.296;6.900;2022-09-20T00:13:00;5.78;;;2.35;;
66567;SDS011;53422;49.296;6.900;2022-09-20T00:15:26;4.43;;;1.95;;
66567;SDS011;53422;49.296;6.900;2022-09-20T00:17:52;5.32;;;2.38;;
66567;SDS011;53422;49.296;6.900;2022-09-20T00:20:18;4.60;;;2.33;;
66567;SDS011;53422;49.296;6.900;2022-09-20T00:22:43;4.85;;;2.15;;
66567;SDS011;53422;49.296;6.900;2022-09-20T00:25:09;4.20;;;1.90;;
66567;SDS011;53422;49.296;6.900;2022-09-20T00:27:34;4.80;;;1.70;;
66567;SDS011;53422;49.296;6.900;2022-09-20T00:30:00;3.65;;;2.63;;
66567;SDS011;53422;49.296;6.900;2022-09-20T00:32:26;5.18;;;2.03;;
66567;SDS011;53422;49.296;6.900;2022-09-20T00:34:51;4.20;;;1.95;;
66567;SDS011;53422;49.296;6.900;2022-09-20T00:40:06;4.30;;;1.92;;
66567;SDS011;53422;49.296;6.900;2022-09-20T00:42:34;4.13;;;1.90;;
66567;SDS011;53422;49.296;6.900;2022-09-20T00:45:04;4.07;;;2.17;;
66567;SDS011;53422;49.296;6.900;2022-09-20T00:52:49;6.43;;;2.15;;
66567;SDS011;53422;49.296;6.900;2022-09-20T00:55:18;5.55;;;2.72;;
66567;SDS011;53422;49.296;6.900;2022-09-20T00:57:45;5.57;;;2.15;;
66567;SDS011;53422;49.296;6.900;2022-09-20T01:00:11;4.55;;;1.85;;
66567;SDS011;53422;49.296;6.900;2022-09-20T01:02:48;4.85;;;2.08;;
66567;SDS011;53422;49.296;6.900;2022-09-20T01:05:17;6.35;;;2.20;;
66567;SDS011;53422;49.296;6.900;2022-09-20T01:07:44;5.25;;;2.38;;
66567;SDS011;53422;49.296;6.900;2022-09-20T01:10:12;5.28;;;2.20;;
66567;SDS011;53422;49.296;6.900;2022-09-20T01:12:38;7.03;;;1.98;;
66567;SDS011;53422;49.296;6.900;2022-09-20T01:15:05;5.57;;;2.88;;
66567;SDS011;53422;49.296;6.900;2022-09-20T01:17:33;5.68;;;1.73;;
66567;SDS011;53422;49.296;6.900;2022-09-20T01:28:30;9.13;;;2.08;;
66567;SDS011;53422;49.296;6.900;2022-09-20T01:31:06;6.47;;;1.73;;
66567;SDS011;53422;49.296;6.900;2022-09-20T01:36:01;6.90;;;1.77;;
66567;SDS011;53422;49.296;6.900;2022-09-20T01:38:43;3.08;;;1.83;;
66567;SDS011;53422;49.296;6.900;2022-09-20T01:41:27;4.10;;;1.65;;
66567;SDS011;53422;49.296;6.900;2022-09-20T01:44:17;2.53;;;1.80;;
66567;SDS011;53422;49.296;6.900;2022-09-20T01:46:53;3.55;;;2.00;;
66567;SDS011;53422;49.296;6.900;2022-09-20T01:52:16;2.70;;;1.83;;
66567;SDS011;53422;49.296;6.900;2022-09-20T02:06:15;4.80;;;1.42;;
66567;SDS011;53422;49.296;6.900;2022-09-20T02:20:07;5.25;;;2.88;;
66567;SDS011;53422;49.296;6.900;2022-09-20T02:31:21;6.07;;;2.35;;
66567;SDS011;53422;49.296;6.900;2022-09-20T02:34:08;5.28;;;2.30;;
66567;SDS011;53422;49.296;6.900;2022-09-20T02:39:35;5.35;;;2.40;;
66567;SDS011;53422;49.296;6.900;2022-09-20T02:44:56;5.65;;;3.05;;
66567;SDS011;53422;49.296;6.900;2022-09-20T02:47:34;4.07;;;1.58;;
66567;SDS011;53422;49.296;6.900;2022-09-20T02:53:06;6.13;;;2.47;;
66567;SDS011;53422;49.296;6.900;2022-09-20T03:06:54;5.35;;;2.97;;
66567;SDS011;53422;49.296;6.900;2022-09-20T03:09:34;6.72;;;3.00;;
66567;SDS011;53422;49.296;6.900;2022-09-20T03:17:41;3.55;;;2.45;;
66567;SDS011;53422;49.296;6.900;2022-09-20T03:20:46;5.05;;;2.75;;
66567;SDS011;53422;49.296;6.900;2022-09-20T03:26:26;6.47;;;2.22;;
66567;SDS011;53422;49.296;6.900;2022-09-20T03:29:02;5.07;;;2.33;;
66567;SDS011;53422;49.296;6.900;2022-09-20T03:39:36;5.05;;;2.10;;
66567;SDS011;53422;49.296;6.900;2022-09-20T03:42:28;4.38;;;2.20;;
66567;SDS011;53422;49.296;6.900;2022-09-20T03:50:28;4.80;;;2.53;;
66567;SDS011;53422;49.296;6.900;2022-09-20T03:58:35;3.88;;;2.25;;
66567;SDS011;53422;49.296;6.900;2022-09-20T04:18:26;4.45;;;2.00;;
66567;SDS011;53422;49.296;6.900;2022-09-20T04:23:51;7.07;;;2.22;;
66567;SDS011;53422;49.296;6.900;2022-09-20T04:26:27;7.30;;;2.50;;
66567;SDS011;53422;49.296;6.900;2022-09-20T04:28:57;6.13;;;2.53;;
66567;SDS011;53422;49.296;6.900;2022-09-20T04:34:29;5.43;;;2.55;;
66567;SDS011;53422;49.296;6.900;2022-09-20T04:40:18;3.58;;;2.40;;
66567;SDS011;53422;49.296;6.900;2022-09-20T04:51:48;6.97;;;2.80;;
66567;SDS011;53422;49.296;6.900;2022-09-20T04:57:26;5.78;;;2.70;;
66567;SDS011;53422;49.296;6.900;2022-09-20T05:00:05;5.13;;;3.10;;
66567;SDS011;53422;49.296;6.900;2022-09-20T05:05:37;7.35;;;3.13;;
66567;SDS011;53422;49.296;6.900;2022-09-20T05:17:05;8.10;;;3.10;;
66567;SDS011;53422;49.296;6.900;2022-09-20T05:23:07;6.43;;;2.67;;
66567;SDS011;53422;49.296;6.900;2022-09-20T05:29:13;7.15;;;2.95;;
66567;SDS011;53422;49.296;6.900;2022-09-20T05:31:50;6.55;;;3.53;;
66567;SDS011;53422;49.296;6.900;2022-09-20T05:34:30;13.35;;;3.90;;
66567;SDS011;53422;49.296;6.900;2022-09-20T05:43:08;6.53;;;3.88;;
66567;SDS011;53422;49.296;6.900;2022-09-20T05:45:56;9.60;;;6.03;;
66567;SDS011;53422;49.296;6.900;2022-09-20T05:51:51;6.13;;;4.03;;
66567;SDS011;53422;49.296;6.900;2022-09-20T05:54:39;6.38;;;3.40;;
66567;SDS011;53422;49.296;6.900;2022-09-20T06:00:44;8.38;;;4.13;;
66567;SDS011;53422;49.296;6.900;2022-09-20T06:05:53;7.72;;;3.22;;
66567;SDS011;53422;49.296;6.900;2022-09-20T06:17:12;8.65;;;4.00;;
66567;SDS011;53422;49.296;6.900;2022-09-20T06:22:38;5.45;;;3.20;;
66567;SDS011;53422;49.296;6.900;2022-09-20T06:27:36;5.72;;;3.60;;
66567;SDS011;53422;49.296;6.900;2022-09-20T06:30:11;6.72;;;3.75;;
66567;SDS011;53422;49.296;6.900;2022-09-20T06:32:57;7.20;;;3.42;;
66567;SDS011;53422;49.296;6.900;2022-09-20T06:38:51;5.68;;;3.45;;
66567;SDS011;53422;49.296;6.900;2022-09-20T06:42:03;9.48;;;3.50;;
66567;SDS011;53422;49.296;6.900;2022-09-20T06:44:30;8.13;;;3.35;;
66567;SDS011;53422;49.296;6.900;2022-09-20T06:46:56;7.43;;;3.95;;
66567;SDS011;53422;49.296;6.900;2022-09-20T06:49:22;5.63;;;2.85;;
66567;SDS011;53422;49.296;6.900;2022-09-20T06:51:53;7.18;;;3.78;;
66567;SDS011;53422;49.296;6.900;2022-09-20T06:54:19;7.40;;;3.85;;
66567;SDS011;53422;49.296;6.900;2022-09-20T06:56:47;9.77;;;3.20;;
66567;SDS011;53422;49.296;6.900;2022-09-20T06:59:14;6.25;;;3.55;;
66567;SDS011;53422;49.296;6.900;2022-09-20T07:01:40;4.35;;;2.70;;
66567;SDS011;53422;49.296;6.900;2022-09-20T07:04:07;6.13;;;3.45;;
66567;SDS011;53422;49.296;6.900;2022-09-20T07:06:33;6.13;;;3.20;;
66567;SDS011;53422;49.296;6.900;2022-09-20T07:08:59;8.65;;;3.60;;
66567;SDS011;53422;49.296;6.900;2022-09-20T07:11:25;8.27;;;3.20;;
66567;SDS011;53422;49.296;6.900;2022-09-20T07:13:52;8.50;;;3.85;;
66567;SDS011;53422;49.296;6.900;2022-09-20T07:18:45;8.98;;;2.70;;
66567;SDS011;53422;49.296;6.900;2022-09-20T07:21:12;7.28;;;2.85;;
66567;SDS011;53422;49.296;6.900;2022-09-20T07:23:40;10.00;;;3.88;;
66567;SDS011;53422;49.296;6.900;2022-09-20T07:26:06;8.98;;;2.80;;
66567;SDS011;53422;49.296;6.900;2022-09-20T07:28:42;6.70;;;3.35;;
66567;SDS011;53422;49.296;6.900;2022-09-20T07:31:08;12.43;;;3.80;;
66567;SDS011;53422;49.296;6.900;2022-09-20T07:33:33;7.57;;;3.95;;
66567;SDS011;53422;49.296;6.900;2022-09-20T07:35:59;10.07;;;4.15;;
66567;SDS011;53422;49.296;6.900;2022-09-20T07:38:24;6.97;;;3.15;;
66567;SDS011;53422;49.296;6.900;2022-09-20T07:40:54;7.63;;;3.92;;
66567;SDS011;53422;49.296;6.900;2022-09-20T07:43:21;8.10;;;3.90;;
66567;SDS011;53422;49.296;6.900;2022-09-20T07:45:51;7.68;;;3.72;;
66567;SDS011;53422;49.296;6.900;2022-09-20T07:48:23;9.30;;;4.28;;
66567;SDS011;53422;49.296;6.900;2022-09-20T07:50:51;9.95;;;3.88;;
66567;SDS011;53422;49.296;6.900;2022-09-20T07:53:18;10.07;;;4.63;;
66567;SDS011;53422;49.296;6.900;2022-09-20T07:55:54;7.90;;;4.15;;
66567;SDS011;53422;49.296;6.900;2022-09-20T07:58:26;7.43;;;3.47;;
66567;SDS011;53422;49.296;6.900;2022-09-20T08:00:57;11.10;;;3.80;;
66567;SDS011;53422;49.296;6.900;2022-09-20T08:03:25;11.75;;;4.10;;
66567;SDS011;53422;49.296;6.900;2022-09-20T08:05:57;9.32;;;3.38;;
66567;SDS011;53422;49.296;6.900;2022-09-20T08:08:30;8.82;;;3.50;;
66567;SDS011;53422;49.296;6.900;2022-09-20T08:11:04;12.73;;;4.05;;
66567;SDS011;53422;49.296;6.900;2022-09-20T08:13:41;13.27;;;3.92;;
66567;SDS011;53422;49.296;6.900;2022-09-20T08:16:11;11.35;;;4.05;;
66567;SDS011;53422;49.296;6.900;2022-09-20T08:18:47;11.05;;;3.80;;
66567;SDS011;53422;49.296;6.900;2022-09-20T08:21:14;6.53;;;3.42;;
66567;SDS011;53422;49.296;6.900;2022-09-20T08:23:40;7.55;;;3.38;;
66567;SDS011;53422;49.296;6.900;2022-09-20T08:26:09;12.68;;;3.80;;
66567;SDS011;53422;49.296;6.900;2022-09-20T08:28:37;9.82;;;4.72;;
66567;SDS011;53422;49.296;6.900;2022-09-20T08:31:05;10.43;;;3.58;;
66567;SDS011;53422;49.296;6.900;2022-09-20T08:33:33;12.20;;;3.53;;
66567;SDS011;53422;49.296;6.900;2022-09-20T08:36:01;6.53;;;3.03;;
66567;SDS011;53422;49.296;6.900;2022-09-20T08:38:32;10.93;;;3.47;;
66567;SDS011;53422;49.296;6.900;2022-09-20T08:41:21;6.90;;;3.28;;
66567;SDS011;53422;49.296;6.900;2022-09-20T08:44:06;9.27;;;2.70;;
66567;SDS011;53422;49.296;6.900;2022-09-20T08:47:02;6.60;;;2.72;;
66567;SDS011;53422;49.296;6.900;2022-09-20T08:49:41;7.78;;;2.85;;
66567;SDS011;53422;49.296;6.900;2022-09-20T08:52:08;5.45;;;2.20;;
66567;SDS011;53422;49.296;6.900;2022-09-20T08:54:41;4.47;;;2.47;;
66567;SDS011;53422;49.296;6.900;2022-09-20T08:57:13;7.70;;;2.72;;
66567;SDS011;53422;49.296;6.900;2022-09-20T08:59:40;13.18;;;2.90;;
66567;SDS011;53422;49.296;6.900;2022-09-20T09:02:16;6.43;;;2.22;;
66567;SDS011;53422;49.296;6.900;2022-09-20T09:04:44;6.93;;;2.50;;
66567;SDS011;53422;49.296;6.900;2022-09-20T09:07:13;7.63;;;2.10;;
66567;SDS011;53422;49.296;6.900;2022-09-20T09:09:43;6.40;;;1.60;;
66567;SDS011;53422;49.296;6.900;2022-09-20T09:12:25;8.25;;;2.42;;
66567;SDS011;53422;49.296;6.900;2022-09-20T09:14:58;7.07;;;2.83;;
66567;SDS011;53422;49.296;6.900;2022-09-20T09:17:28;4.22;;;2.00;;
66567;SDS011;53422;49.296;6.900;2022-09-20T09:22:38;2.38;;;1.60;;
66567;SDS011;53422;49.296;6.900;2022-09-20T09:27:59;3.08;;;1.45;;
66567;SDS011;53422;49.296;6.900;2022-09-20T09:30:28;4.20;;;2.35;;
66567;SDS011;53422;49.296;6.900;2022-09-20T09:33:13;4.75;;;2.08;;
66567;SDS011;53422;49.296;6.900;2022-09-20T09:35:43;5.30;;;2.05;;
66567;SDS011;53422;49.296;6.900;2022-09-20T09:38:16;4.20;;;1.80;;
66567;SDS011;53422;49.296;6.900;2022-09-20T09:40:53;6.22;;;2.20;;
66567;SDS011;53422;49.296;6.900;2022-09-20T09:43:21;5.70;;;1.02;;
66567;SDS011;53422;49.296;6.900;2022-09-20T09:45:52;4.88;;;1.90;;
66567;SDS011;53422;49.296;6.900;2022-09-20T09:48:22;2.95;;;1.85;;
66567;SDS011;53422;49.296;6.900;2022-09-20T09:51:06;4.57;;;1.70;;
66567;SDS011;53422;49.296;6.900;2022-09-20T09:53:37;4.60;;;1.60;;
66567;SDS011;53422;49.296;6.900;2022-09-20T10:01:28;4.85;;;1.75;;
66567;SDS011;53422;49.296;6.900;2022-09-20T10:06:37;3.47;;;1.60;;
66567;SDS011;53422;49.296;6.900;2022-09-20T10:20:21;5.05;;;1.40;;
66567;SDS011;53422;49.296;6.900;2022-09-20T10:25:38;4.20;;;1.80;;
66567;SDS011;53422;49.296;6.900;2022-09-20T10:31:07;3.97;;;1.70;;
66567;SDS011;53422;49.296;6.900;2022-09-20T10:45:24;4.05;;;1.50;;
66567;SDS011;53422;49.296;6.900;2022-09-20T11:09:06;2.35;;;1.40;;
66567;SDS011;53422;49.296;6.900;2022-09-20T11:11:51;5.75;;;1.30;;
66567;SDS011;53422;49.296;6.900;2022-09-20T11:14:34;3.65;;;1.42;;
66567;SDS011;53422;49.296;6.900;2022-09-20T11:19:45;3.35;;;1.30;;
66567;SDS011;53422;49.296;6.900;2022-09-20T11:27:45;2.17;;;1.25;;
66567;SDS011;53422;49.296;6.900;2022-09-20T11:30:16;3.47;;;1.35;;
66567;SDS011;53422;49.296;6.900;2022-09-20T11:35:34;2.60;;;1.20;;
66567;SDS011;53422;49.296;6.900;2022-09-20T11:38:23;3.60;;;1.52;;
66567;SDS011;53422;49.296;6.900;2022-09-20T11:43:42;4.05;;;1.23;;
66567;SDS011;53422;49.296;6.900;2022-09-20T11:46:14;4.75;;;2.13;;
66567;SDS011;53422;49.296;6.900;2022-09-20T11:57:06;2.63;;;1.25;;
66567;SDS011;53422;49.296;6.900;2022-09-20T11:59:39;2.58;;;1.33;;
66567;SDS011;53422;49.296;6.900;2022-09-20T12:02:21;6.60;;;2.40;;
66567;SDS011;53422;49.296;6.900;2022-09-20T12:04:53;5.15;;;1.98;;
66567;SDS011;53422;49.296;6.900;2022-09-20T12:09:54;5.10;;;1.63;;
66567;SDS011;53422;49.296;6.900;2022-09-20T12:15:06;4.47;;;1.40;;
66567;SDS011;53422;49.296;6.900;2022-09-20T12:28:46;3.63;;;1.35;;
66567;SDS011;53422;49.296;6.900;2022-09-20T12:33:58;3.10;;;1.05;;
66567;SDS011;53422;49.296;6.900;2022-09-20T12:36:28;1.98;;;1.25;;
66567;SDS011;53422;49.296;6.900;2022-09-20T12:42:21;2.05;;;1.05;;
66567;SDS011;53422;49.296;6.900;2022-09-20T13:03:21;4.22;;;2.95;;
66567;SDS011;53422;49.296;6.900;2022-09-20T13:16:50;2.40;;;1.45;;
66567;SDS011;53422;49.296;6.900;2022-09-20T13:19:19;2.58;;;1.20;;
66567;SDS011;53422;49.296;6.900;2022-09-20T13:21:54;1.90;;;1.20;;
66567;SDS011;53422;49.296;6.900;2022-09-20T13:24:22;1.50;;;1.30;;
66567;SDS011;53422;49.296;6.900;2022-09-20T13:26:49;1.50;;;1.00;;
66567;SDS011;53422;49.296;6.900;2022-09-20T13:29:21;3.40;;;1.20;;
66567;SDS011;53422;49.296;6.900;2022-09-20T13:31:51;2.45;;;1.30;;
66567;SDS011;53422;49.296;6.900;2022-09-20T13:34:18;1.80;;;1.08;;
66567;SDS011;53422;49.296;6.900;2022-09-20T13:36:45;1.70;;;1.30;;
66567;SDS011;53422;49.296;6.900;2022-09-20T13:39:21;1.60;;;1.00;;
66567;SDS011;53422;49.296;6.900;2022-09-20T13:41:50;1.88;;;1.08;;
66567;SDS011;53422;49.296;6.900;2022-09-20T13:44:16;3.42;;;1.48;;
66567;SDS011;53422;49.296;6.900;2022-09-20T13:46:43;1.65;;;1.25;;
66567;SDS011;53422;49.296;6.900;2022-09-20T13:51:41;1.80;;;1.35;;
66567;SDS011;53422;49.296;6.900;2022-09-20T13:57:03;2.88;;;1.55;;
66567;SDS011;53422;49.296;6.900;2022-09-20T13:59:41;2.70;;;1.20;;
66567;SDS011;53422;49.296;6.900;2022-09-20T14:02:28;2.72;;;1.10;;
66567;SDS011;53422;49.296;6.900;2022-09-20T14:04:57;1.98;;;1.10;;
66567;SDS011;53422;49.296;6.900;2022-09-20T14:07:28;3.05;;;1.42;;
66567;SDS011;53422;49.296;6.900;2022-09-20T14:09:55;1.80;;;1.10;;
66567;SDS011;53422;49.296;6.900;2022-09-20T14:12:22;2.00;;;0.95;;
66567;SDS011;53422;49.296;6.900;2022-09-20T14:14:50;1.85;;;1.20;;
66567;SDS011;53422;49.296;6.900;2022-09-20T14:17:17;1.13;;;0.60;;
66567;SDS011;53422;49.296;6.900;2022-09-20T14:19:46;3.35;;;1.00;;
66567;SDS011;53422;49.296;6.900;2022-09-20T14:22:32;2.35;;;1.13;;
66567;SDS011;53422;49.296;6.900;2022-09-20T14:25:02;4.65;;;1.02;;
66567;SDS011;53422;49.296;6.900;2022-09-20T14:27:42;2.13;;;1.10;;
66567;SDS011;53422;49.296;6.900;2022-09-20T14:30:28;5.55;;;1.00;;
66567;SDS011;53422;49.296;6.900;2022-09-20T14:33:00;2.25;;;1.45;;
66567;SDS011;53422;49.296;6.900;2022-09-20T14:35:27;1.95;;;1.35;;
66567;SDS011;53422;49.296;6.900;2022-09-20T14:38:16;3.65;;;1.20;;
66567;SDS011;53422;49.296;6.900;2022-09-20T14:40:43;2.53;;;1.40;;
66567;SDS011;53422;49.296;6.900;2022-09-20T14:46:00;2.28;;;1.30;;
66567;SDS011;53422;49.296;6.900;2022-09-20T14:48:34;2.90;;;1.25;;
66567;SDS011;53422;49.296;6.900;2022-09-20T14:53:42;2.58;;;1.25;;
66567;SDS011;53422;49.296;6.900;2022-09-20T14:56:10;1.98;;;0.80;;
66567;SDS011;53422;49.296;6.900;2022-09-20T15:01:35;2.22;;;1.30;;
66567;SDS011;53422;49.296;6.900;2022-09-20T15:04:06;2.10;;;1.25;;
66567;SDS011;53422;49.296;6.900;2022-09-20T15:06:46;1.60;;;0.95;;
66567;SDS011;53422;49.296;6.900;2022-09-20T15:09:12;2.85;;;0.95;;
66567;SDS011;53422;49.296;6.900;2022-09-20T15:11:38;2.55;;;1.13;;
66567;SDS011;53422;49.296;6.900;2022-09-20T15:14:05;2.05;;;0.95;;
66567;SDS011;53422;49.296;6.900;2022-09-20T15:16:31;1.50;;;1.20;;
66567;SDS011;53422;49.296;6.900;2022-09-20T15:18:57;4.57;;;0.93;;
66567;SDS011;53422;49.296;6.900;2022-09-20T15:21:23;1.50;;;1.00;;
66567;SDS011;53422;49.296;6.900;2022-09-20T15:23:49;2.58;;;1.00;;
66567;SDS011;53422;49.296;6.900;2022-09-20T15:26:15;1.50;;;1.05;;
66567;SDS011;53422;49.296;6.900;2022-09-20T15:28:43;2.03;;;1.08;;
66567;SDS011;53422;49.296;6.900;2022-09-20T15:31:09;4.32;;;1.35;;
66567;SDS011;53422;49.296;6.900;2022-09-20T15:33:34;2.70;;;1.15;;
66567;SDS011;53422;49.296;6.900;2022-09-20T15:36:00;1.60;;;1.10;;
66567;SDS011;53422;49.296;6.900;2022-09-20T15:38:27;3.78;;;1.10;;
66567;SDS011;53422;49.296;6.900;2022-09-20T15:40:53;4.70;;;1.33;;
66567;SDS011;53422;49.296;6.900;2022-09-20T15:43:19;2.13;;;1.15;;
66567;SDS011;53422;49.296;6.900;2022-09-20T15:45:58;3.83;;;1.67;;
66567;SDS011;53422;49.296;6.900;2022-09-20T15:48:25;4.13;;;1.60;;
66567;SDS011;53422;49.296;6.900;2022-09-20T15:51:03;2.92;;;1.23;;
66567;SDS011;53422;49.296;6.900;2022-09-20T15:53:31;2.38;;;1.25;;
66567;SDS011;53422;49.296;6.900;2022-09-20T15:56:03;1.98;;;1.27;;
66567;SDS011;53422;49.296;6.900;2022-09-20T15:58:37;3.05;;;1.88;;
66567;SDS011;53422;49.296;6.900;2022-09-20T16:01:06;1.80;;;1.25;;
66567;SDS011;53422;49.296;6.900;2022-09-20T16:03:32;2.25;;;1.25;;
66567;SDS011;53422;49.296;6.900;2022-09-20T16:05:59;2.60;;;1.10;;
66567;SDS011;53422;49.296;6.900;2022-09-20T16:08:33;2.05;;;1.55;;
66567;SDS011;53422;49.296;6.900;2022-09-20T16:11:04;2.03;;;1.35;;
66567;SDS011;53422;49.296;6.900;2022-09-20T16:13:30;1.83;;;0.90;;
66567;SDS011;53422;49.296;6.900;2022-09-20T16:15:57;2.95;;;1.20;;
66567;SDS011;53422;49.296;6.900;2022-09-20T16:21:09;5.00;;;1.52;;
66567;SDS011;53422;49.296;6.900;2022-09-20T16:23:39;2.25;;;1.30;;
66567;SDS011;53422;49.296;6.900;2022-09-20T16:26:06;2.58;;;1.15;;
66567;SDS011;53422;49.296;6.900;2022-09-20T16:28:40;2.40;;;0.98;;
66567;SDS011;53422;49.296;6.900;2022-09-20T16:31:22;3.05;;;1.15;;
66567;SDS011;53422;49.296;6.900;2022-09-20T16:33:53;1.90;;;1.52;;
66567;SDS011;53422;49.296;6.900;2022-09-20T16:36:18;2.60;;;1.08;;
66567;SDS011;53422;49.296;6.900;2022-09-20T16:38:46;2.15;;;1.20;;
66567;SDS011;53422;49.296;6.900;2022-09-20T16:41:11;1.40;;;1.30;;
66567;SDS011;53422;49.296;6.900;2022-09-20T16:43:37;1.33;;;0.90;;
66567;SDS011;53422;49.296;6.900;2022-09-20T16:46:02;1.70;;;1.10;;
66567;SDS011;53422;49.296;6.900;2022-09-20T16:48:29;3.13;;;1.50;;
66567;SDS011;53422;49.296;6.900;2022-09-20T16:50:55;1.60;;;1.25;;
66567;SDS011;53422;49.296;6.900;2022-09-20T16:53:24;2.15;;;1.48;;
66567;SDS011;53422;49.296;6.900;2022-09-20T16:55:51;2.33;;;1.33;;
66567;SDS011;53422;49.296;6.900;2022-09-20T16:58:24;4.13;;;1.40;;
66567;SDS011;53422;49.296;6.900;2022-09-20T17:00:51;3.03;;;1.02;;
66567;SDS011;53422;49.296;6.900;2022-09-20T17:03:16;3.45;;;1.17;;
66567;SDS011;53422;49.296;6.900;2022-09-20T17:05:43;1.83;;;1.00;;
66567;SDS011;53422;49.296;6.900;2022-09-20T17:08:08;1.17;;;0.90;;
66567;SDS011;53422;49.296;6.900;2022-09-20T17:10:34;2.55;;;1.35;;
66567;SDS011;53422;49.296;6.900;2022-09-20T17:13:00;2.22;;;1.25;;
66567;SDS011;53422;49.296;6.900;2022-09-20T17:15:27;3.80;;;1.40;;
66567;SDS011;53422;49.296;6.900;2022-09-20T17:17:52;2.10;;;0.80;;
66567;SDS011;53422;49.296;6.900;2022-09-20T17:20:18;1.63;;;1.30;;
66567;SDS011;53422;49.296;6.900;2022-09-20T17:22:43;2.30;;;0.65;;
66567;SDS011;53422;49.296;6.900;2022-09-20T17:25:09;1.73;;;1.13;;
66567;SDS011;53422;49.296;6.900;2022-09-20T17:27:34;2.08;;;1.13;;
66567;SDS011;53422;49.296;6.900;2022-09-20T17:30:03;2.10;;;1.20;;
66567;SDS011;53422;49.296;6.900;2022-09-20T17:32:32;4.10;;;1.48;;
66567;SDS011;53422;49.296;6.900;2022-09-20T17:34:57;3.03;;;1.30;;
66567;SDS011;53422;49.296;6.900;2022-09-20T17:37:24;3.92;;;1.40;;
66567;SDS011;53422;49.296;6.900;2022-09-20T17:39:49;2.58;;;1.45;;
66567;SDS011;53422;49.296;6.900;2022-09-20T17:42:15;4.38;;;1.77;;
66567;SDS011;53422;49.296;6.900;2022-09-20T17:44:40;2.65;;;1.23;;
66567;SDS011;53422;49.296;6.900;2022-09-20T17:47:06;3.72;;;1.83;;
66567;SDS011;53422;49.296;6.900;2022-09-20T17:49:32;2.53;;;1.98;;
66567;SDS011;53422;49.296;6.900;2022-09-20T17:51:58;2.50;;;1.92;;
66567;SDS011;53422;49.296;6.900;2022-09-20T17:54:24;2.30;;;1.60;;
66567;SDS011;53422;49.296;6.900;2022-09-20T17:56:50;2.75;;;1.60;;
66567;SDS011;53422;49.296;6.900;2022-09-20T17:59:17;2.67;;;1.50;;
66567;SDS011;53422;49.296;6.900;2022-09-20T18:01:44;2.97;;;1.52;;
66567;SDS011;53422;49.296;6.900;2022-09-20T18:04:11;4.13;;;2.28;;
66567;SDS011;53422;49.296;6.900;2022-09-20T18:06:41;3.35;;;2.20;;
66567;SDS011;53422;49.296;6.900;2022-09-20T18:09:11;4.97;;;2.05;;
66567;SDS011;53422;49.296;6.900;2022-09-20T18:11:45;3.95;;;2.30;;
66567;SDS011;53422;49.296;6.900;2022-09-20T18:14:14;5.00;;;2.10;;
66567;SDS011;53422;49.296;6.900;2022-09-20T18:16:40;3.97;;;2.00;;
66567;SDS011;53422;49.296;6.900;2022-09-20T18:19:10;3.95;;;1.88;;
66567;SDS011;53422;49.296;6.900;2022-09-20T18:21:36;4.05;;;2.10;;
66567;SDS011;53422;49.296;6.900;2022-09-20T18:24:03;4.50;;;1.42;;
66567;SDS011;53422;49.296;6.900;2022-09-20T18:26:30;4.55;;;2.97;;
66567;SDS011;53422;49.296;6.900;2022-09-20T18:31:35;4.82;;;2.17;;
66567;SDS011;53422;49.296;6.900;2022-09-20T18:34:14;4.28;;;2.80;;
66567;SDS011;53422;49.296;6.900;2022-09-20T18:36:42;7.20;;;2.70;;
66567;SDS011;53422;49.296;6.900;2022-09-20T18:39:10;3.92;;;2.22;;
66567;SDS011;53422;49.296;6.900;2022-09-20T18:41:37;3.38;;;1.85;;
66567;SDS011;53422;49.296;6.900;2022-09-20T18:44:05;2.35;;;1.83;;
66567;SDS011;53422;49.296;6.900;2022-09-20T18:46:32;3.20;;;2.00;;
66567;SDS011;53422;49.296;6.900;2022-09-20T18:49:03;4.47;;;2.72;;
66567;SDS011;53422;49.296;6.900;2022-09-20T18:51:30;4.63;;;2.25;;
66567;SDS011;53422;49.296;6.900;2022-09-20T18:53:56;4.03;;;2.45;;
66567;SDS011;53422;49.296;6.900;2022-09-20T18:56:23;5.07;;;2.67;;
66567;SDS011;53422;49.296;6.900;2022-09-20T18:58:57;4.38;;;2.33;;
66567;SDS011;53422;49.296;6.900;2022-09-20T19:12:28;5.80;;;2.42;;
66567;SDS011;53422;49.296;6.900;2022-09-20T19:18:03;6.63;;;2.40;;
66567;SDS011;53422;49.296;6.900;2022-09-20T19:26:40;5.57;;;3.35;;
66567;SDS011;53422;49.296;6.900;2022-09-20T19:29:19;7.00;;;2.88;;
66567;SDS011;53422;49.296;6.900;2022-09-20T19:31:49;5.13;;;2.78;;
66567;SDS011;53422;49.296;6.900;2022-09-20T19:42:41;6.53;;;3.22;;
66567;SDS011;53422;49.296;6.900;2022-09-20T19:45:38;5.05;;;2.67;;
66567;SDS011;53422;49.296;6.900;2022-09-20T19:50:55;4.93;;;3.20;;
66567;SDS011;53422;49.296;6.900;2022-09-20T19:53:21;7.07;;;3.28;;
66567;SDS011;53422;49.296;6.900;2022-09-20T19:55:57;5.18;;;2.90;;
66567;SDS011;53422;49.296;6.900;2022-09-20T19:58:27;5.13;;;3.08;;
66567;SDS011;53422;49.296;6.900;2022-09-20T20:00:53;5.30;;;2.95;;
66567;SDS011;53422;49.296;6.900;2022-09-20T20:03:19;5.35;;;3.22;;
66567;SDS011;53422;49.296;6.900;2022-09-20T20:05:59;4.35;;;2.67;;
66567;SDS011;53422;49.296;6.900;2022-09-20T20:14:22;5.30;;;2.90;;
66567;SDS011;53422;49.296;6.900;2022-09-20T20:17:16;4.70;;;2.97;;
66567;SDS011;53422;49.296;6.900;2022-09-20T20:19:54;5.07;;;2.83;;
66567;SDS011;53422;49.296;6.900;2022-09-20T20:24:53;5.75;;;2.70;;
66567;SDS011;53422;49.296;6.900;2022-09-20T20:27:23;4.65;;;2.70;;
66567;SDS011;53422;49.296;6.900;2022-09-20T20:29:52;5.22;;;2.53;;
66567;SDS011;53422;49.296;6.900;2022-09-20T20:32:19;4.60;;;2.35;;
66567;SDS011;53422;49.296;6.900;2022-09-20T20:34:45;5.65;;;2.83;;
66567;SDS011;53422;49.296;6.900;2022-09-20T20:37:11;5.72;;;2.90;;
66567;SDS011;53422;49.296;6.900;2022-09-20T20:39:36;3.97;;;2.33;;
66567;SDS011;53422;49.296;6.900;2022-09-20T20:42:02;4.88;;;2.60;;
66567;SDS011;53422;49.296;6.900;2022-09-20T20:44:30;7.25;;;3.05;;
66567;SDS011;53422;49.296;6.900;2022-09-20T20:47:00;6.57;;;3.28;;
66567;SDS011;53422;49.296;6.900;2022-09-20T20:49:27;6.75;;;3.47;;
66567;SDS011;53422;49.296;6.900;2022-09-20T20:51:52;6.22;;;3.08;;
66567;SDS011;53422;49.296;6.900;2022-09-20T20:54:18;4.55;;;2.90;;
66567;SDS011;53422;49.296;6.900;2022-09-20T20:56:45;5.97;;;3.28;;
66567;SDS011;53422;49.296;6.900;2022-09-20T20:59:10;7.22;;;3.25;;
66567;SDS011;53422;49.296;6.900;2022-09-20T21:01:37;5.65;;;2.90;;
66567;SDS011;53422;49.296;6.900;2022-09-20T21:04:07;4.72;;;2.90;;
66567;SDS011;53422;49.296;6.900;2022-09-20T21:06:34;6.03;;;3.42;;
66567;SDS011;53422;49.296;6.900;2022-09-20T21:09:01;6.18;;;3.15;;
66567;SDS011;53422;49.296;6.900;2022-09-20T21:13:56;5.38;;;2.90;;
66567;SDS011;53422;49.296;6.900;2022-09-20T21:16:34;7.32;;;3.58;;
66567;SDS011;53422;49.296;6.900;2022-09-20T21:19:02;6.75;;;3.42;;
66567;SDS011;53422;49.296;6.900;2022-09-20T21:21:33;7.95;;;4.40;;
66567;SDS011;53422;49.296;6.900;2022-09-20T21:24:07;6.53;;;3.72;;
66567;SDS011;53422;49.296;6.900;2022-09-20T21:26:34;7.20;;;2.90;;
66567;SDS011;53422;49.296;6.900;2022-09-20T21:29:02;6.18;;;3.30;;
66567;SDS011;53422;49.296;6.900;2022-09-20T21:31:31;5.18;;;3.10;;
66567;SDS011;53422;49.296;6.900;2022-09-20T21:33:58;5.90;;;3.22;;
66567;SDS011;53422;49.296;6.900;2022-09-20T21:36:25;7.75;;;4.05;;
66567;SDS011;53422;49.296;6.900;2022-09-20T21:38:53;6.75;;;3.35;;
66567;SDS011;53422;49.296;6.900;2022-09-20T21:41:20;5.25;;;2.30;;